Time;durP1;ratioP1;P1;durP2;ratioP2;P2;SDS_P1;SDS_P2;PMS_P1;PMS_P2;Temp;Humidity;BMP_temperature;BMP_pressure;BME280_temperature;BME280_humidity;BME280_pressure;Samples;Min_cycle;Max_cycle;Signal;HPM_P1;HPM_P2
2022/03/11 00:01:04;;;;;;;13.30;7.07;;;;;;;;;;4994770;28;20034;-82
2022/03/11 00:03:32;;;;;;;14.00;7.07;;;;;;;;;;4990548;28;20052;-83
2022/03/11 00:06:03;;;;;;;13.15;7.20;;;;;;;;;;4994467;28;20068;-83
2022/03/11 00:08:28;;;;;;;11.98;6.72;;;;;;;;;;4994920;28;20501;-84
2022/03/11 00:10:54;;;;;;;13.93;7.32;;;;;;;;;;5007281;28;20042;-83
2022/03/11 00:13:19;;;;;;;12.32;7.00;;;;;;;;;;5008592;28;20046;-83
2022/03/11 00:15:45;;;;;;;13.93;7.30;;;;;;;;;;4993189;28;20164;-83
2022/03/11 00:18:10;;;;;;;13.65;7.65;;;;;;;;;;4995357;28;20400;-82
2022/03/11 00:20:36;;;;;;;13.82;7.13;;;;;;;;;;4990636;28;20030;-83
2022/03/11 00:23:01;;;;;;;15.15;8.25;;;;;;;;;;4995202;28;20053;-83
2022/03/11 00:25:26;;;;;;;13.57;7.90;;;;;;;;;;5008910;28;20041;-82
2022/03/11 00:27:52;;;;;;;13.93;7.53;;;;;;;;;;4995871;28;20030;-82
2022/03/11 00:30:18;;;;;;;16.25;8.02;;;;;;;;;;4990064;28;20057;-82
2022/03/11 00:32:43;;;;;;;14.32;7.47;;;;;;;;;;4993754;28;20049;-82
2022/03/11 00:35:10;;;;;;;14.55;7.60;;;;;;;;;;4993544;28;20034;-84
2022/03/11 00:37:37;;;;;;;13.50;7.22;;;;;;;;;;4990813;28;20038;-82
2022/03/11 00:40:03;;;;;;;12.95;7.20;;;;;;;;;;5011909;28;20500;-83
2022/03/11 00:42:28;;;;;;;13.25;7.22;;;;;;;;;;4995672;28;20712;-83
2022/03/11 00:44:54;;;;;;;13.50;7.78;;;;;;;;;;4993395;28;20042;-84
2022/03/11 00:47:19;;;;;;;16.10;7.70;;;;;;;;;;4997094;28;20404;-83
2022/03/11 00:49:44;;;;;;;12.95;8.10;;;;;;;;;;4996881;28;20033;-83
2022/03/11 00:52:10;;;;;;;15.48;7.75;;;;;;;;;;5009286;28;20084;-83
2022/03/11 00:54:35;;;;;;;13.73;7.57;;;;;;;;;;4999952;28;20029;-83
2022/03/11 00:57:01;;;;;;;14.48;7.82;;;;;;;;;;4996500;28;20034;-82
2022/03/11 00:59:26;;;;;;;14.38;7.95;;;;;;;;;;4995503;28;20025;-82
2022/03/11 01:01:52;;;;;;;13.88;7.03;;;;;;;;;;4991669;28;20062;-82
2022/03/11 01:04:17;;;;;;;16.75;7.60;;;;;;;;;;5012200;28;20034;-83
2022/03/11 01:06:42;;;;;;;15.50;7.72;;;;;;;;;;4993211;28;20038;-84
2022/03/11 01:09:08;;;;;;;13.82;7.32;;;;;;;;;;4994079;28;20038;-84
2022/03/11 01:11:33;;;;;;;15.48;7.47;;;;;;;;;;4998899;28;20115;-83
2022/03/11 01:13:59;;;;;;;14.48;7.93;;;;;;;;;;4996741;28;20052;-84
2022/03/11 01:16:24;;;;;;;13.02;6.93;;;;;;;;;;4995112;28;20034;-83
2022/03/11 01:18:50;;;;;;;14.93;8.07;;;;;;;;;;4995718;28;20034;-82
2022/03/11 01:21:15;;;;;;;14.65;7.82;;;;;;;;;;4996494;28;20038;-84
2022/03/11 01:23:41;;;;;;;16.08;7.53;;;;;;;;;;4996518;28;20045;-82
2022/03/11 01:26:06;;;;;;;13.93;7.60;;;;;;;;;;4994529;28;20405;-81
2022/03/11 01:28:31;;;;;;;13.45;7.72;;;;;;;;;;4995629;28;20049;-83
2022/03/11 01:30:57;;;;;;;15.88;7.78;;;;;;;;;;4992960;28;20034;-82
2022/03/11 01:33:22;;;;;;;15.52;7.65;;;;;;;;;;4993018;28;20042;-83
2022/03/11 01:35:48;;;;;;;14.48;8.00;;;;;;;;;;4993059;28;20074;-81
2022/03/11 01:38:14;;;;;;;14.73;7.90;;;;;;;;;;4996145;28;20038;-81
2022/03/11 01:40:39;;;;;;;14.00;8.00;;;;;;;;;;4993389;28;20030;-82
2022/03/11 01:43:17;;;;;;;15.48;8.38;;;;;;;;;;5010382;28;20040;-82
2022/03/11 01:45:43;;;;;;;16.33;8.55;;;;;;;;;;4995453;28;20034;-83
2022/03/11 01:48:10;;;;;;;15.50;7.80;;;;;;;;;;4996720;28;20787;-83
2022/03/11 01:50:37;;;;;;;15.38;8.02;;;;;;;;;;4992437;28;20034;-83
2022/03/11 01:53:03;;;;;;;14.70;7.82;;;;;;;;;;4989101;28;20034;-82
2022/03/11 01:55:28;;;;;;;15.52;8.55;;;;;;;;;;4997374;28;20045;-84
2022/03/11 01:57:54;;;;;;;16.08;9.13;;;;;;;;;;4994745;28;20211;-82
2022/03/11 02:00:19;;;;;;;14.20;7.32;;;;;;;;;;5009098;28;20129;-83
2022/03/11 02:02:44;;;;;;;15.18;8.02;;;;;;;;;;4993730;28;20120;-83
2022/03/11 02:05:10;;;;;;;14.43;8.00;;;;;;;;;;4995277;28;20058;-82
2022/03/11 02:07:35;;;;;;;13.35;8.30;;;;;;;;;;4995172;28;20446;-83
2022/03/11 02:10:00;;;;;;;17.40;8.75;;;;;;;;;;5004487;28;20041;-83
2022/03/11 02:12:30;;;;;;;14.10;8.25;;;;;;;;;;5012282;28;20033;-84
2022/03/11 02:14:55;;;;;;;18.85;7.97;;;;;;;;;;4995854;28;20451;-83
2022/03/11 02:17:21;;;;;;;18.02;8.70;;;;;;;;;;4997682;28;20040;-84
2022/03/11 02:19:46;;;;;;;16.33;8.65;;;;;;;;;;4991815;28;20443;-84
2022/03/11 02:22:13;;;;;;;15.75;8.70;;;;;;;;;;4995552;28;20045;-84
2022/03/11 02:24:38;;;;;;;18.20;8.48;;;;;;;;;;4995109;28;20112;-84
2022/03/11 02:27:04;;;;;;;16.88;8.27;;;;;;;;;;4994223;28;20187;-83
2022/03/11 02:29:29;;;;;;;17.77;8.55;;;;;;;;;;4994974;28;20683;-83
2022/03/11 02:31:54;;;;;;;18.17;8.40;;;;;;;;;;5010147;28;20095;-82
2022/03/11 02:34:20;;;;;;;15.23;8.50;;;;;;;;;;4994506;28;20037;-84
2022/03/11 02:36:45;;;;;;;16.83;8.60;;;;;;;;;;4996113;28;20061;-84
2022/03/11 02:39:10;;;;;;;15.25;8.32;;;;;;;;;;5009757;28;20082;-84
2022/03/11 02:41:37;;;;;;;16.65;8.82;;;;;;;;;;4994628;28;20055;-83
2022/03/11 02:44:03;;;;;;;17.70;8.75;;;;;;;;;;4997150;28;20021;-84
2022/03/11 02:46:28;;;;;;;16.48;9.10;;;;;;;;;;4998068;28;20034;-84
2022/03/11 02:48:53;;;;;;;16.15;8.40;;;;;;;;;;4995041;28;20087;-84
2022/03/11 02:51:19;;;;;;;17.65;8.60;;;;;;;;;;5009268;28;20496;-84
2022/03/11 02:53:44;;;;;;;15.60;8.82;;;;;;;;;;4993956;28;20038;-84
2022/03/11 02:56:10;;;;;;;16.25;8.75;;;;;;;;;;5009229;28;20029;-84
2022/03/11 02:58:36;;;;;;;15.75;8.30;;;;;;;;;;4995361;28;20493;-83
2022/03/11 03:01:02;;;;;;;17.87;8.33;;;;;;;;;;4994240;28;20029;-84
2022/03/11 03:03:28;;;;;;;17.40;9.02;;;;;;;;;;5008996;28;20032;-82
2022/03/11 03:05:53;;;;;;;17.90;8.90;;;;;;;;;;4985644;28;20048;-83
2022/03/11 03:08:18;;;;;;;16.20;9.13;;;;;;;;;;5007909;28;20140;-84
2022/03/11 03:10:44;;;;;;;19.67;8.75;;;;;;;;;;4991766;28;20037;-82
2022/03/11 03:13:09;;;;;;;16.98;8.88;;;;;;;;;;4992145;28;20038;-83
2022/03/11 03:15:34;;;;;;;21.55;9.43;;;;;;;;;;4993261;28;20038;-83
2022/03/11 03:17:59;;;;;;;19.15;9.23;;;;;;;;;;4997673;28;20041;-84
2022/03/11 03:20:25;;;;;;;18.88;9.05;;;;;;;;;;4998780;28;20076;-86
2022/03/11 03:22:50;;;;;;;14.77;8.63;;;;;;;;;;4992344;28;20985;-84
2022/03/11 03:25:15;;;;;;;16.80;8.63;;;;;;;;;;5007582;28;20033;-84
2022/03/11 03:27:41;;;;;;;15.73;9.05;;;;;;;;;;4991362;28;20102;-83
2022/03/11 03:30:07;;;;;;;19.02;9.38;;;;;;;;;;4993360;28;20045;-83
2022/03/11 03:32:32;;;;;;;15.55;8.80;;;;;;;;;;4990448;28;20034;-84
2022/03/11 03:34:58;;;;;;;17.15;8.73;;;;;;;;;;4992178;28;20088;-83
2022/03/11 03:37:23;;;;;;;17.00;9.18;;;;;;;;;;4991772;28;20393;-84
2022/03/11 03:39:48;;;;;;;18.27;9.30;;;;;;;;;;4992477;28;20069;-83
2022/03/11 03:42:14;;;;;;;18.25;9.02;;;;;;;;;;4982092;28;20034;-83
2022/03/11 03:44:39;;;;;;;20.17;9.98;;;;;;;;;;4994063;28;20532;-85
2022/03/11 03:47:04;;;;;;;19.05;9.32;;;;;;;;;;4996321;28;20065;-84
2022/03/11 03:49:30;;;;;;;17.83;9.25;;;;;;;;;;4995379;28;21050;-83
2022/03/11 03:51:56;;;;;;;15.63;9.02;;;;;;;;;;4991129;28;20088;-84
2022/03/11 03:54:21;;;;;;;16.02;9.05;;;;;;;;;;4993632;28;20029;-84
2022/03/11 03:56:47;;;;;;;20.88;9.20;;;;;;;;;;4992775;28;20155;-83
2022/03/11 03:59:13;;;;;;;18.40;9.30;;;;;;;;;;4994211;28;20082;-84
2022/03/11 04:01:43;;;;;;;20.15;9.68;;;;;;;;;;4992732;28;20026;-84
2022/03/11 04:04:11;;;;;;;18.75;9.95;;;;;;;;;;4993586;28;20034;-83
2022/03/11 04:06:38;;;;;;;17.15;9.63;;;;;;;;;;4990510;28;20053;-82
2022/03/11 04:09:07;;;;;;;16.92;9.15;;;;;;;;;;5011964;28;20037;-84
2022/03/11 04:11:33;;;;;;;20.08;9.13;;;;;;;;;;4993947;28;20034;-84
2022/03/11 04:13:58;;;;;;;18.35;9.00;;;;;;;;;;4993954;28;20108;-82
2022/03/11 04:16:24;;;;;;;17.02;9.35;;;;;;;;;;4991576;28;20073;-84
2022/03/11 04:18:50;;;;;;;16.02;9.13;;;;;;;;;;4994464;28;20030;-85
2022/03/11 04:21:16;;;;;;;18.30;9.45;;;;;;;;;;4993223;28;20132;-83
2022/03/11 04:23:43;;;;;;;17.25;8.88;;;;;;;;;;4996748;28;20057;-82
2022/03/11 04:26:08;;;;;;;17.63;9.32;;;;;;;;;;5000354;28;20509;-84
2022/03/11 04:28:34;;;;;;;17.30;9.07;;;;;;;;;;4996532;28;20044;-84
2022/03/11 04:30:59;;;;;;;18.27;9.80;;;;;;;;;;4994495;28;20030;-84
2022/03/11 04:33:25;;;;;;;18.33;9.40;;;;;;;;;;5012768;28;20037;-84
2022/03/11 04:35:51;;;;;;;17.88;9.27;;;;;;;;;;5011287;28;20489;-84
2022/03/11 04:38:16;;;;;;;16.63;9.05;;;;;;;;;;4996324;28;20046;-84
2022/03/11 04:40:42;;;;;;;16.63;9.88;;;;;;;;;;4995067;28;20075;-83
2022/03/11 04:43:07;;;;;;;19.75;9.27;;;;;;;;;;4994570;28;20033;-83
2022/03/11 04:45:32;;;;;;;18.80;9.75;;;;;;;;;;4996493;28;20124;-83
2022/03/11 04:47:58;;;;;;;16.83;9.52;;;;;;;;;;4990158;28;20075;-84
2022/03/11 04:50:23;;;;;;;16.13;8.70;;;;;;;;;;5000773;28;20501;-83
2022/03/11 04:52:49;;;;;;;16.17;9.02;;;;;;;;;;4996327;28;20048;-83
2022/03/11 04:55:16;;;;;;;17.25;9.30;;;;;;;;;;5011278;28;20038;-84
2022/03/11 04:57:44;;;;;;;18.88;9.57;;;;;;;;;;4995292;28;20038;-83
2022/03/11 05:00:11;;;;;;;18.83;9.55;;;;;;;;;;4997675;28;20120;-83
2022/03/11 05:02:36;;;;;;;17.20;9.45;;;;;;;;;;5002390;28;20037;-82
2022/03/11 05:05:05;;;;;;;16.55;9.35;;;;;;;;;;4999476;28;20037;-83
2022/03/11 05:07:31;;;;;;;19.77;9.70;;;;;;;;;;4997270;28;20048;-83
2022/03/11 05:09:57;;;;;;;16.85;9.18;;;;;;;;;;4997069;28;20030;-83
2022/03/11 05:12:22;;;;;;;17.55;9.13;;;;;;;;;;4993831;28;20045;-83
2022/03/11 05:14:51;;;;;;;18.50;9.27;;;;;;;;;;4996168;28;20042;-83
2022/03/11 05:17:19;;;;;;;17.27;9.30;;;;;;;;;;4983476;28;20026;-84
2022/03/11 05:19:45;;;;;;;18.77;9.65;;;;;;;;;;4995309;28;20052;-82
2022/03/11 05:22:11;;;;;;;18.55;9.52;;;;;;;;;;5010097;28;20038;-84
2022/03/11 05:24:36;;;;;;;17.48;9.63;;;;;;;;;;5000434;28;20053;-82
2022/03/11 05:27:03;;;;;;;18.48;9.18;;;;;;;;;;5011198;28;20068;-83
2022/03/11 05:29:29;;;;;;;19.35;9.57;;;;;;;;;;4995382;28;20040;-83
2022/03/11 05:31:55;;;;;;;19.83;10.30;;;;;;;;;;5003710;28;22054;-83
2022/03/11 05:34:23;;;;;;;17.65;9.35;;;;;;;;;;5012280;28;20096;-85
2022/03/11 05:36:48;;;;;;;18.38;9.68;;;;;;;;;;4994033;28;20801;-84
2022/03/11 05:39:14;;;;;;;18.40;9.73;;;;;;;;;;5000003;28;20038;-83
2022/03/11 05:41:39;;;;;;;18.02;9.82;;;;;;;;;;4992948;28;20033;-82
2022/03/11 05:44:08;;;;;;;18.98;9.98;;;;;;;;;;4994713;28;20397;-84
2022/03/11 05:46:33;;;;;;;18.70;9.38;;;;;;;;;;4993693;28;20033;-83
2022/03/11 05:48:59;;;;;;;20.67;10.23;;;;;;;;;;4993881;28;20114;-84
2022/03/11 05:51:24;;;;;;;19.42;10.77;;;;;;;;;;4992292;28;22307;-84
2022/03/11 05:53:49;;;;;;;18.83;10.23;;;;;;;;;;4992560;28;20046;-85
2022/03/11 05:56:15;;;;;;;19.20;9.95;;;;;;;;;;4995327;28;20377;-83
2022/03/11 05:58:43;;;;;;;19.65;9.80;;;;;;;;;;4982165;28;20908;-85
2022/03/11 06:01:08;;;;;;;19.73;10.43;;;;;;;;;;4997856;28;20060;-85
2022/03/11 06:03:34;;;;;;;18.65;10.13;;;;;;;;;;4995732;28;20037;-82
2022/03/11 06:05:59;;;;;;;17.48;10.15;;;;;;;;;;5008899;28;20030;-81
2022/03/11 06:08:25;;;;;;;20.17;10.73;;;;;;;;;;4995598;28;20057;-82
2022/03/11 06:10:50;;;;;;;18.33;10.20;;;;;;;;;;5010371;28;20034;-82
2022/03/11 06:13:16;;;;;;;19.02;10.02;;;;;;;;;;4996127;28;20116;-81
2022/03/11 06:15:42;;;;;;;21.23;10.52;;;;;;;;;;5008603;28;20043;-81
2022/03/11 06:18:08;;;;;;;17.63;10.25;;;;;;;;;;4995848;28;20042;-82
2022/03/11 06:20:36;;;;;;;18.52;9.95;;;;;;;;;;4994694;28;20080;-83
2022/03/11 06:23:02;;;;;;;20.00;10.40;;;;;;;;;;4993851;28;20038;-82
2022/03/11 06:25:28;;;;;;;19.67;10.52;;;;;;;;;;4992311;28;20037;-82
2022/03/11 06:27:53;;;;;;;48.53;23.27;;;;;;;;;;5001776;28;20064;-81
2022/03/11 06:30:20;;;;;;;21.75;10.57;;;;;;;;;;4996133;28;20034;-83
2022/03/11 06:32:48;;;;;;;18.07;9.73;;;;;;;;;;4993288;28;20037;-83
2022/03/11 06:35:13;;;;;;;;;;;;;;;;;;4995241;28;20390;-84
2022/03/11 06:37:46;;;;;;;19.65;10.00;;;;;;;;;;4995738;28;19918;-84
2022/03/11 06:40:11;;;;;;;21.80;10.63;;;;;;;;;;4993293;28;20033;-84
2022/03/11 06:42:39;;;;;;;18.90;10.32;;;;;;;;;;4992858;28;20096;-85
2022/03/11 06:45:06;;;;;;;18.88;10.70;;;;;;;;;;4994584;28;20033;-85
2022/03/11 06:47:32;;;;;;;16.30;8.75;;;;;;;;;;4982757;28;20041;-85
2022/03/11 06:49:57;;;;;;;21.17;10.98;;;;;;;;;;5010653;28;20044;-86
2022/03/11 06:52:25;;;;;;;20.98;10.50;;;;;;;;;;4992629;28;20049;-83
2022/03/11 06:54:56;;;;;;;21.05;10.68;;;;;;;;;;5007949;28;20037;-87
2022/03/11 06:57:22;;;;;;;20.30;10.45;;;;;;;;;;4992324;28;20065;-88
2022/03/11 06:59:48;;;;;;;20.35;10.45;;;;;;;;;;4985319;28;20061;-88
2022/03/11 07:02:14;;;;;;;19.52;10.88;;;;;;;;;;4983519;28;20088;-84
2022/03/11 07:04:40;;;;;;;21.45;11.23;;;;;;;;;;4996510;28;20062;-85
2022/03/11 07:07:08;;;;;;;20.95;11.40;;;;;;;;;;4994160;28;20044;-84
2022/03/11 07:09:34;;;;;;;20.00;10.90;;;;;;;;;;4993975;28;20040;-84
2022/03/11 07:12:06;;;;;;;21.77;10.23;;;;;;;;;;4983827;28;20981;-83
2022/03/11 07:14:35;;;;;;;19.42;10.45;;;;;;;;;;4994016;28;20176;-81
2022/03/11 07:17:01;;;;;;;18.08;10.15;;;;;;;;;;5010235;28;20436;-79
2022/03/11 07:19:29;;;;;;;20.20;10.77;;;;;;;;;;4996003;28;20057;-81
2022/03/11 07:22:00;;;;;;;20.85;10.38;;;;;;;;;;5010388;28;20126;-82
2022/03/11 07:24:25;;;;;;;18.55;9.05;;;;;;;;;;4993541;28;20060;-80
2022/03/11 07:26:51;;;;;;;20.75;10.43;;;;;;;;;;4988579;28;20493;-80
2022/03/11 07:29:16;;;;;;;19.23;10.00;;;;;;;;;;4997280;28;20052;-80
2022/03/11 07:31:42;;;;;;;20.48;11.15;;;;;;;;;;4989757;28;20542;-82
2022/03/11 07:34:07;;;;;;;25.20;11.15;;;;;;;;;;4995625;28;20121;-83
2022/03/11 07:36:34;;;;;;;26.67;12.52;;;;;;;;;;4991305;28;20033;-80
2022/03/11 07:39:09;;;;;;;18.13;10.27;;;;;;;;;;4997646;28;20058;-79
2022/03/11 07:41:38;;;;;;;23.15;10.68;;;;;;;;;;4993782;28;20464;-81
2022/03/11 07:44:04;;;;;;;19.90;11.13;;;;;;;;;;4980969;28;20597;-80
2022/03/11 07:46:30;;;;;;;19.23;10.52;;;;;;;;;;4965108;28;20037;-79
2022/03/11 07:48:57;;;;;;;21.52;10.13;;;;;;;;;;5008561;28;20115;-81
2022/03/11 07:51:22;;;;;;;19.02;10.52;;;;;;;;;;4991759;28;20038;-80
2022/03/11 07:53:48;;;;;;;18.58;9.32;;;;;;;;;;4992040;28;20145;-79
2022/03/11 07:56:14;;;;;;;17.70;10.32;;;;;;;;;;5007159;28;20436;-81
2022/03/11 07:58:41;;;;;;;19.70;10.18;;;;;;;;;;5013893;28;20064;-80
2022/03/11 08:01:08;;;;;;;19.63;10.43;;;;;;;;;;4991081;28;20064;-80
2022/03/11 08:03:34;;;;;;;18.45;10.07;;;;;;;;;;4994321;28;20401;-81
2022/03/11 08:06:00;;;;;;;18.63;10.30;;;;;;;;;;4992894;28;20037;-82
2022/03/11 08:08:26;;;;;;;17.55;9.57;;;;;;;;;;4995193;28;20464;-81
2022/03/11 08:10:54;;;;;;;19.00;9.95;;;;;;;;;;4993739;28;20107;-81
2022/03/11 08:13:22;;;;;;;17.58;10.15;;;;;;;;;;5013303;28;20060;-81
2022/03/11 08:15:47;;;;;;;17.63;9.00;;;;;;;;;;5012345;28;20030;-80
2022/03/11 08:18:13;;;;;;;19.20;8.65;;;;;;;;;;4999492;28;20065;-80
2022/03/11 08:20:38;;;;;;;18.40;9.20;;;;;;;;;;4997881;28;20068;-81
2022/03/11 08:23:03;;;;;;;17.52;9.80;;;;;;;;;;4995929;28;20562;-80
2022/03/11 08:25:29;;;;;;;16.00;8.95;;;;;;;;;;4993433;28;20104;-80
2022/03/11 08:27:55;;;;;;;15.43;9.27;;;;;;;;;;5010814;28;20084;-82
2022/03/11 08:30:21;;;;;;;16.27;8.88;;;;;;;;;;4999947;28;20697;-79
2022/03/11 08:32:48;;;;;;;19.17;9.07;;;;;;;;;;4993655;28;20030;-82
2022/03/11 08:35:14;;;;;;;19.10;9.15;;;;;;;;;;4993198;28;20060;-82
2022/03/11 08:37:39;;;;;;;15.27;9.45;;;;;;;;;;4993423;28;20037;-82
2022/03/11 08:40:06;;;;;;;20.30;8.75;;;;;;;;;;4994274;28;20038;-81
2022/03/11 08:42:33;;;;;;;20.63;10.00;;;;;;;;;;4999063;28;20476;-81
2022/03/11 08:45:00;;;;;;;16.23;9.20;;;;;;;;;;4994467;28;20041;-81
2022/03/11 08:47:26;;;;;;;17.65;9.18;;;;;;;;;;5010357;28;20042;-80
2022/03/11 08:49:51;;;;;;;14.73;8.85;;;;;;;;;;5011576;28;20407;-80
2022/03/11 08:52:17;;;;;;;17.08;9.15;;;;;;;;;;4999394;28;20038;-82
2022/03/11 08:54:42;;;;;;;16.13;9.18;;;;;;;;;;4996885;28;20038;-81
2022/03/11 08:57:07;;;;;;;17.42;9.50;;;;;;;;;;4994827;28;20119;-83
2022/03/11 08:59:33;;;;;;;27.35;11.43;;;;;;;;;;4996046;28;20171;-81
2022/03/11 09:01:58;;;;;;;16.45;9.15;;;;;;;;;;4989387;28;20476;-82
2022/03/11 09:04:23;;;;;;;17.55;9.18;;;;;;;;;;4992961;28;20546;-82
2022/03/11 09:06:49;;;;;;;15.23;9.40;;;;;;;;;;4992689;28;20049;-81
2022/03/11 09:09:14;;;;;;;19.05;9.38;;;;;;;;;;5008448;28;20029;-82
2022/03/11 09:11:40;;;;;;;15.40;8.73;;;;;;;;;;4994041;28;20041;-81
2022/03/11 09:14:07;;;;;;;16.38;8.82;;;;;;;;;;4994448;28;20042;-83
2022/03/11 09:16:34;;;;;;;20.13;9.40;;;;;;;;;;5010586;28;20099;-82
2022/03/11 09:19:01;;;;;;;14.13;8.73;;;;;;;;;;4993150;28;20342;-80
2022/03/11 09:21:28;;;;;;;15.63;8.50;;;;;;;;;;4991693;28;20129;-82
2022/03/11 09:23:53;;;;;;;15.18;9.57;;;;;;;;;;5009143;28;20505;-82
2022/03/11 09:26:18;;;;;;;15.65;8.82;;;;;;;;;;4996369;28;20030;-82
2022/03/11 09:28:44;;;;;;;13.55;8.90;;;;;;;;;;4995185;28;20092;-80
2022/03/11 09:31:09;;;;;;;15.13;8.75;;;;;;;;;;4992497;28;20045;-82
2022/03/11 09:33:37;;;;;;;22.63;13.10;;;;;;;;;;5011809;28;20041;-81
2022/03/11 09:36:03;;;;;;;14.20;9.23;;;;;;;;;;4992309;28;20036;-82
2022/03/11 09:38:28;;;;;;;15.32;9.50;;;;;;;;;;5000988;28;20045;-81
2022/03/11 09:40:56;;;;;;;15.07;9.35;;;;;;;;;;4992385;28;20643;-80
2022/03/11 09:43:21;;;;;;;16.88;9.25;;;;;;;;;;5012701;28;20057;-81
2022/03/11 09:45:46;;;;;;;17.23;9.27;;;;;;;;;;4998159;28;20026;-81
2022/03/11 09:48:15;;;;;;;16.08;9.30;;;;;;;;;;4995994;28;20036;-79
2022/03/11 09:50:40;;;;;;;17.65;9.40;;;;;;;;;;5009757;28;20176;-80
2022/03/11 09:53:06;;;;;;;16.13;9.55;;;;;;;;;;4996692;28;20069;-83
2022/03/11 09:55:31;;;;;;;16.38;9.32;;;;;;;;;;4990122;28;20038;-82
2022/03/11 09:57:57;;;;;;;14.73;8.93;;;;;;;;;;5009812;28;20489;-79
2022/03/11 10:00:22;;;;;;;18.08;8.65;;;;;;;;;;4994503;28;20046;-81
2022/03/11 10:02:47;;;;;;;14.02;8.70;;;;;;;;;;4998625;28;20045;-79
2022/03/11 10:05:14;;;;;;;18.02;9.90;;;;;;;;;;4993905;28;20048;-79
2022/03/11 10:07:39;;;;;;;15.00;9.35;;;;;;;;;;4993447;28;20044;-83
2022/03/11 10:10:31;;;;;;;16.13;9.57;;;;;;;;;;4994604;28;20041;-81
2022/03/11 10:12:56;;;;;;;17.20;8.90;;;;;;;;;;4988547;28;20042;-80
2022/03/11 10:15:28;;;;;;;16.23;8.85;;;;;;;;;;4990602;28;20512;-81
2022/03/11 10:17:53;;;;;;;18.27;9.52;;;;;;;;;;4996877;28;20038;-80
2022/03/11 10:20:19;;;;;;;18.63;9.23;;;;;;;;;;5003865;28;20052;-81
2022/03/11 10:22:47;;;;;;;20.13;9.50;;;;;;;;;;4992480;28;20358;-81
2022/03/11 10:25:19;;;;;;;15.93;8.50;;;;;;;;;;4996542;28;20034;-81
2022/03/11 10:28:09;;;;;;;16.75;8.65;;;;;;;;;;5005937;28;20045;-80
2022/03/11 10:30:37;;;;;;;16.92;8.93;;;;;;;;;;5009335;28;20049;-80
2022/03/11 10:33:04;;;;;;;;;;;;;;;;;;4992992;28;20033;-80
2022/03/11 10:35:39;;;;;;;16.93;9.20;;;;;;;;;;5009316;28;19920;-81
2022/03/11 10:38:07;;;;;;;17.27;8.88;;;;;;;;;;5009026;28;20038;-79
2022/03/11 10:40:34;;;;;;;14.68;8.65;;;;;;;;;;4979623;28;20052;-79
2022/03/11 10:43:14;;;;;;;15.75;9.10;;;;;;;;;;5007655;28;20038;-81
2022/03/11 10:45:50;;;;;;;14.90;8.75;;;;;;;;;;5009412;28;20092;-81
2022/03/11 10:48:16;;;;;;;18.50;9.02;;;;;;;;;;5010931;28;20044;-80
2022/03/11 10:50:42;;;;;;;16.55;8.77;;;;;;;;;;4994229;28;20120;-78
2022/03/11 10:53:08;;;;;;;16.13;8.93;;;;;;;;;;4993217;28;20136;-81
2022/03/11 10:55:34;;;;;;;15.55;8.65;;;;;;;;;;5010198;28;20551;-81
2022/03/11 10:58:04;;;;;;;12.90;8.65;;;;;;;;;;4994970;28;20057;-82
2022/03/11 11:00:35;;;;;;;13.98;8.32;;;;;;;;;;4996354;28;20529;-83
2022/03/11 11:03:05;;;;;;;15.88;7.85;;;;;;;;;;4995929;28;20037;-81
2022/03/11 11:05:31;;;;;;;12.93;7.90;;;;;;;;;;4993150;28;20495;-80
2022/03/11 11:07:58;;;;;;;14.35;8.30;;;;;;;;;;5008843;28;20048;-84
2022/03/11 11:10:27;;;;;;;13.25;8.00;;;;;;;;;;4994451;28;20071;-82
2022/03/11 11:12:52;;;;;;;11.77;7.65;;;;;;;;;;4992101;28;20057;-83
2022/03/11 11:15:18;;;;;;;15.82;8.25;;;;;;;;;;4991190;28;20508;-82
2022/03/11 11:17:46;;;;;;;12.95;8.02;;;;;;;;;;4993135;28;20050;-80
2022/03/11 11:20:25;;;;;;;15.80;9.00;;;;;;;;;;4990996;28;20034;-81
2022/03/11 11:22:52;;;;;;;14.45;7.90;;;;;;;;;;4991711;28;20154;-81
2022/03/11 11:25:19;;;;;;;13.95;7.35;;;;;;;;;;4991153;28;20040;-83
2022/03/11 11:27:46;;;;;;;11.98;7.07;;;;;;;;;;4990890;28;20050;-80
2022/03/11 11:30:17;;;;;;;11.18;6.63;;;;;;;;;;5009726;28;20156;-82
2022/03/11 11:32:42;;;;;;;11.60;6.72;;;;;;;;;;4995445;28;20163;-82
2022/03/11 11:35:29;;;;;;;12.70;6.75;;;;;;;;;;4992175;28;20038;-82
2022/03/11 11:37:55;;;;;;;12.40;6.85;;;;;;;;;;4993216;28;20037;-82
2022/03/11 11:40:26;;;;;;;11.90;7.20;;;;;;;;;;5008215;28;20042;-82
2022/03/11 11:43:28;;;;;;;11.55;6.97;;;;;;;;;;5009368;28;20045;-81
2022/03/11 11:45:54;;;;;;;14.20;7.28;;;;;;;;;;5008434;28;20037;-82
2022/03/11 11:48:31;;;;;;;10.82;6.72;;;;;;;;;;5009809;28;20497;-81
2022/03/11 11:51:00;;;;;;;15.98;7.43;;;;;;;;;;5006046;28;20052;-81
2022/03/11 11:53:35;;;;;;;13.32;7.30;;;;;;;;;;5011944;28;20038;-81
2022/03/11 11:56:00;;;;;;;13.43;6.72;;;;;;;;;;5007891;28;20845;-79
2022/03/11 11:58:26;;;;;;;11.73;7.05;;;;;;;;;;4991945;28;20108;-82
2022/03/11 12:00:54;;;;;;;11.05;6.60;;;;;;;;;;4995694;28;20088;-80
2022/03/11 12:03:22;;;;;;;11.35;6.68;;;;;;;;;;5000482;28;20485;-79
2022/03/11 12:05:51;;;;;;;10.90;6.85;;;;;;;;;;4993915;28;20090;-82
2022/03/11 12:08:36;;;;;;;10.52;6.35;;;;;;;;;;4993152;28;20038;-80
2022/03/11 12:11:01;;;;;;;10.93;6.63;;;;;;;;;;5008890;28;20046;-80
2022/03/11 12:13:34;;;;;;;10.50;6.57;;;;;;;;;;4992638;28;20488;-79
2022/03/11 12:16:01;;;;;;;11.38;6.78;;;;;;;;;;4991255;28;20492;-79
2022/03/11 12:18:58;;;;;;;10.75;6.85;;;;;;;;;;5006996;28;20037;-79
2022/03/11 12:21:27;;;;;;;14.48;6.70;;;;;;;;;;4951971;28;20103;-80
2022/03/11 12:23:53;;;;;;;11.07;6.72;;;;;;;;;;5006677;28;20822;-79
2022/03/11 12:26:19;;;;;;;11.15;6.55;;;;;;;;;;4991094;28;20072;-81
2022/03/11 12:28:45;;;;;;;13.25;6.80;;;;;;;;;;4992458;28;20038;-81
2022/03/11 12:31:21;;;;;;;12.05;6.47;;;;;;;;;;5005766;28;20030;-82
2022/03/11 12:33:47;;;;;;;13.57;6.22;;;;;;;;;;5006992;28;20029;-82
2022/03/11 12:36:21;;;;;;;10.10;5.88;;;;;;;;;;4987410;28;20129;-80
2022/03/11 12:38:48;;;;;;;11.98;6.38;;;;;;;;;;4989474;28;20038;-81
2022/03/11 12:41:21;;;;;;;12.93;6.90;;;;;;;;;;4989193;28;20038;-80
2022/03/11 12:43:47;;;;;;;12.18;6.82;;;;;;;;;;4985272;28;20034;-82
2022/03/11 12:46:13;;;;;;;13.85;6.32;;;;;;;;;;4983239;28;20052;-81
2022/03/11 12:48:40;;;;;;;11.25;6.53;;;;;;;;;;4994133;28;20033;-80
2022/03/11 12:51:08;;;;;;;10.70;6.32;;;;;;;;;;4994178;28;20039;-80
2022/03/11 12:53:37;;;;;;;;;;;;;;;;;;4993756;28;20519;-79
2022/03/11 12:56:02;;;;;;;12.45;6.38;;;;;;;;;;4994555;28;20369;-79
2022/03/11 12:58:31;;;;;;;12.70;6.00;;;;;;;;;;4995967;28;20040;-78
2022/03/11 13:01:02;;;;;;;10.75;6.00;;;;;;;;;;5011291;28;20048;-80
2022/03/11 13:03:32;;;;;;;14.02;5.78;;;;;;;;;;4994766;28;20065;-77
2022/03/11 13:05:59;;;;;;;12.40;5.82;;;;;;;;;;4996450;28;20104;-80
2022/03/11 13:08:24;;;;;;;11.60;6.22;;;;;;;;;;5011141;28;20104;-79
2022/03/11 13:10:52;;;;;;;15.38;6.15;;;;;;;;;;4998637;28;20033;-78
2022/03/11 13:13:20;;;;;;;10.45;5.70;;;;;;;;;;4999545;28;20046;-81
2022/03/11 13:15:47;;;;;;;12.68;6.25;;;;;;;;;;4993815;28;20064;-77
2022/03/11 13:18:17;;;;;;;11.48;6.40;;;;;;;;;;4995083;28;20169;-79
2022/03/11 13:21:09;;;;;;;12.70;6.15;;;;;;;;;;4995128;28;20087;-84
2022/03/11 13:23:45;;;;;;;11.07;5.95;;;;;;;;;;4992984;28;20041;-86
2022/03/11 13:26:20;;;;;;;15.80;5.78;;;;;;;;;;4993460;28;20482;-87
2022/03/11 13:28:50;;;;;;;12.15;6.07;;;;;;;;;;4997328;28;20062;-85
2022/03/11 13:31:23;;;;;;;12.65;6.28;;;;;;;;;;5009107;28;20046;-89
2022/03/11 13:33:56;;;;;;;10.88;5.80;;;;;;;;;;5015580;28;20037;-82
2022/03/11 13:36:23;;;;;;;11.68;5.78;;;;;;;;;;5007435;28;20370;-84
2022/03/11 13:38:54;;;;;;;12.73;6.00;;;;;;;;;;4994925;28;20508;-90
2022/03/11 13:41:38;;;;;;;10.52;5.85;;;;;;;;;;5011387;28;20046;-87
2022/03/11 13:44:12;;;;;;;9.13;4.88;;;;;;;;;;5011609;28;20041;-85
2022/03/11 13:46:39;;;;;;;12.90;5.90;;;;;;;;;;5010289;28;20041;-87
2022/03/11 13:49:09;;;;;;;10.30;5.30;;;;;;;;;;4995180;28;20034;-84
2022/03/11 13:51:52;;;;;;;14.30;6.07;;;;;;;;;;4993490;28;20392;-83
2022/03/11 13:54:26;;;;;;;16.33;5.95;;;;;;;;;;4997384;28;20041;-83
2022/03/11 13:56:52;;;;;;;13.07;6.03;;;;;;;;;;5007658;28;20049;-80
2022/03/11 13:59:31;;;;;;;13.25;5.60;;;;;;;;;;4994387;28;20054;-82
2022/03/11 14:02:11;;;;;;;14.85;5.75;;;;;;;;;;4992463;28;20037;-81
2022/03/11 14:04:39;;;;;;;11.52;6.07;;;;;;;;;;4994422;28;20450;-81
2022/03/11 14:07:18;;;;;;;11.63;6.10;;;;;;;;;;4991672;28;20386;-81
2022/03/11 14:09:53;;;;;;;10.95;5.50;;;;;;;;;;4993534;28;20038;-80
2022/03/11 14:12:28;;;;;;;10.38;5.63;;;;;;;;;;5013127;28;20568;-81
2022/03/11 14:15:05;;;;;;;10.10;5.47;;;;;;;;;;4993294;28;20042;-79
2022/03/11 14:17:31;;;;;;;11.65;5.88;;;;;;;;;;5011245;28;20057;-83
2022/03/11 14:19:58;;;;;;;11.85;5.20;;;;;;;;;;5011942;28;20103;-83
2022/03/11 14:22:23;;;;;;;9.90;5.75;;;;;;;;;;4993181;28;20045;-80
2022/03/11 14:24:49;;;;;;;11.80;5.47;;;;;;;;;;4993928;28;20448;-80
2022/03/11 14:27:15;;;;;;;10.18;5.68;;;;;;;;;;4989586;28;20073;-81
2022/03/11 14:29:41;;;;;;;12.05;6.10;;;;;;;;;;4994246;28;20033;-79